TimeMDT,TemperatureF,Dew PointF,Humidity,Sea Level PressureIn,VisibilityMPH,Wind Direction,Wind SpeedMPH,Gust SpeedMPH,PrecipitationIn,Events,Conditions,WindDirDegrees,DateUTC
12:13 AM,44.6,28.4,53,30.27,10.0,WSW,6.9,-,N/A,,Clear,250,2013-10-01 06:13:00
12:34 AM,44.6,28.4,53,30.27,10.0,SW,8.1,-,N/A,,Clear,230,2013-10-01 06:34:00
12:54 AM,44.6,28.4,53,30.27,10.0,SW,6.9,-,N/A,,Clear,220,2013-10-01 06:54:00
1:13 AM,44.6,28.4,53,30.28,10.0,SW,5.8,-,N/A,,Clear,220,2013-10-01 07:13:00
1:34 AM,44.6,28.4,53,30.28,10.0,West,6.9,-,N/A,,Clear,260,2013-10-01 07:34:00
1:53 AM,44.6,26.6,49,30.29,10.0,West,6.9,-,N/A,,Clear,270,2013-10-01 07:53:00
2:14 AM,44.6,26.6,49,30.28,10.0,SW,8.1,-,N/A,,Clear,230,2013-10-01 08:14:00
2:33 AM,44.6,26.6,49,30.28,10.0,WSW,6.9,-,N/A,,Clear,240,2013-10-01 08:33:00
2:54 AM,44.6,26.6,49,30.28,10.0,WSW,6.9,-,N/A,,Clear,240,2013-10-01 08:54:00
3:15 AM,44.6,26.6,49,30.29,10.0,WSW,5.8,-,N/A,,Clear,250,2013-10-01 09:15:00
3:31 AM,44.6,26.6,49,30.29,10.0,SW,5.8,-,N/A,,Clear,230,2013-10-01 09:31:00
3:54 AM,44.6,26.6,49,30.29,10.0,WNW,4.6,-,N/A,,Clear,290,2013-10-01 09:54:00
4:15 AM,44.6,26.6,49,30.30,10.0,SW,5.8,-,N/A,,Clear,230,2013-10-01 10:15:00
4:34 AM,44.6,26.6,49,30.30,10.0,West,4.6,-,N/A,,Clear,260,2013-10-01 10:34:00
4:54 AM,44.6,26.6,49,30.30,10.0,SW,5.8,-,N/A,,Clear,220,2013-10-01 10:54:00
5:14 AM,44.6,26.6,49,30.31,10.0,West,4.6,-,N/A,,Clear,260,2013-10-01 11:14:00
5:35 AM,42.8,26.6,53,30.32,10.0,West,3.5,-,N/A,,Clear,280,2013-10-01 11:35:00
5:53 AM,44.6,26.6,49,30.33,10.0,Calm,Calm,-,N/A,,Clear,0,2013-10-01 11:53:00
6:14 AM,46.4,26.6,46,30.34,10.0,SE,3.5,-,N/A,,Clear,140,2013-10-01 12:14:00
6:35 AM,44.6,26.6,49,30.35,10.0,East,6.9,-,N/A,,Clear,90,2013-10-01 12:35:00
6:53 AM,44.6,26.6,49,30.35,10.0,East,8.1,-,N/A,,Clear,80,2013-10-01 12:53:00
7:14 AM,46.4,26.6,46,30.35,10.0,ENE,11.5,18.4,N/A,,Clear,70,2013-10-01 13:14:00
7:34 AM,48.2,26.6,43,30.35,10.0,East,11.5,-,N/A,,Clear,90,2013-10-01 13:34:00
7:53 AM,50.0,26.6,40,30.36,10.0,East,13.8,19.6,N/A,,Clear,80,2013-10-01 13:53:00
8:12 AM,51.8,26.6,38,30.36,10.0,ENE,15.0,20.7,N/A,,Clear,70,2013-10-01 14:12:00
8:34 AM,53.6,26.6,35,30.37,10.0,ENE,13.8,-,N/A,,Clear,70,2013-10-01 14:34:00
8:55 AM,53.6,28.4,38,30.37,10.0,East,15.0,20.7,N/A,,Clear,80,2013-10-01 14:55:00
9:15 AM,53.6,28.4,38,30.38,10.0,ENE,15.0,23.0,N/A,,Clear,70,2013-10-01 15:15:00
9:34 AM,53.6,28.4,38,30.38,10.0,East,15.0,20.7,N/A,,Clear,80,2013-10-01 15:34:00
9:53 AM,55.4,28.4,36,30.38,10.0,East,15.0,24.2,N/A,,Clear,80,2013-10-01 15:53:00
10:14 AM,53.6,28.4,38,30.38,10.0,East,16.1,21.9,N/A,,Clear,80,2013-10-01 16:14:00
10:34 AM,55.4,30.2,38,30.38,10.0,East,16.1,21.9,N/A,,Clear,80,2013-10-01 16:34:00
10:54 AM,55.4,30.2,38,30.38,10.0,East,16.1,21.9,N/A,,Clear,80,2013-10-01 16:54:00
11:15 AM,57.2,30.2,36,30.38,10.0,East,15.0,23.0,N/A,,Clear,80,2013-10-01 17:15:00
11:34 AM,59.0,32.0,36,30.38,10.0,ENE,11.5,20.7,N/A,,Clear,60,2013-10-01 17:34:00
11:55 AM,59.0,30.2,34,30.38,10.0,ENE,15.0,23.0,N/A,,Clear,70,2013-10-01 17:55:00
12:15 PM,-9999,-9999,N/A,30.37,-9999.0,North,-9999.0,-,N/A,,Unknown,0,2013-10-01 18:15:00
12:34 PM,59.0,32.0,36,30.37,10.0,ENE,11.5,20.7,N/A,,Unknown,60,2013-10-01 18:34:00
12:54 PM,59.0,30.2,34,30.37,10.0,East,13.8,18.4,N/A,,Unknown,90,2013-10-01 18:54:00
1:14 PM,59.0,30.2,34,30.36,10.0,ENE,13.8,19.6,N/A,,Clear,60,2013-10-01 19:14:00
1:34 PM,59.0,32.0,36,30.35,10.0,ENE,10.4,17.3,N/A,,Clear,70,2013-10-01 19:34:00
1:54 PM,59.0,30.2,34,30.35,10.0,ENE,13.8,19.6,N/A,,Clear,60,2013-10-01 19:54:00
2:13 PM,59.0,30.2,34,30.34,10.0,ENE,11.5,18.4,N/A,,Clear,70,2013-10-01 20:13:00
2:34 PM,59.0,32.0,36,30.34,10.0,East,10.4,18.4,N/A,,Clear,90,2013-10-01 20:34:00
2:54 PM,59.0,30.2,34,30.34,10.0,ENE,10.4,18.4,N/A,Thunderstorm,Clear,70,2013-10-01 20:54:00
3:13 PM,59.0,32.0,36,30.33,10.0,ENE,9.2,-,N/A,,Clear,60,2013-10-01 21:13:00
3:34 PM,57.2,30.2,36,30.33,10.0,East,10.4,18.4,N/A,,Clear,80,2013-10-01 21:34:00
3:54 PM,57.2,30.2,36,30.33,10.0,ENE,9.2,16.1,N/A,,Clear,70,2013-10-01 21:54:00
4:14 PM,55.4,30.2,38,30.33,10.0,ENE,11.5,16.1,N/A,,Clear,70,2013-10-01 22:14:00
4:35 PM,53.6,30.2,41,30.32,10.0,ENE,8.1,-,N/A,,Clear,60,2013-10-01 22:35:00
4:54 PM,53.6,30.2,41,30.32,10.0,East,11.5,-,N/A,,Clear,80,2013-10-01 22:54:00
5:13 PM,53.6,30.2,41,30.31,10.0,ENE,9.2,-,N/A,,Clear,70,2013-10-01 23:13:00
5:34 PM,51.8,30.2,44,30.31,10.0,East,12.7,-,N/A,,Clear,80,2013-10-01 23:34:00
5:54 PM,50.0,30.2,47,30.31,10.0,East,10.4,-,N/A,,Scattered Clouds,80,2013-10-01 23:54:00
6:14 PM,50.0,30.2,47,30.31,10.0,East,11.5,-,N/A,,Scattered Clouds,80,2013-10-02 00:14:00
6:33 PM,48.2,28.4,46,30.31,10.0,ENE,9.2,-,N/A,,Scattered Clouds,70,2013-10-02 00:33:00
6:54 PM,46.4,28.4,50,30.31,10.0,East,11.5,-,N/A,,Scattered Clouds,80,2013-10-02 00:54:00
7:14 PM,46.4,28.4,50,30.31,10.0,ENE,9.2,-,N/A,,Scattered Clouds,70,2013-10-02 01:14:00
7:33 PM,46.4,28.4,50,30.31,10.0,ENE,6.9,-,N/A,,Scattered Clouds,60,2013-10-02 01:33:00
7:54 PM,46.4,28.4,50,30.31,10.0,NE,6.9,-,N/A,,Clear,50,2013-10-02 01:54:00
8:14 PM,46.4,28.4,50,30.31,10.0,NE,3.5,-,N/A,,Clear,40,2013-10-02 02:14:00
8:33 PM,46.4,28.4,50,30.32,10.0,SW,3.5,-,N/A,,Clear,220,2013-10-02 02:33:00
8:54 PM,48.2,28.4,46,30.31,10.0,SSW,6.9,-,N/A,,Clear,210,2013-10-02 02:54:00
9:14 PM,48.2,28.4,46,30.31,10.0,SW,10.4,-,N/A,,Clear,220,2013-10-02 03:14:00
9:34 PM,48.2,28.4,46,30.31,10.0,SW,10.4,-,N/A,,Clear,220,2013-10-02 03:34:00
9:53 PM,46.4,28.4,50,30.31,10.0,SW,10.4,16.1,N/A,,Clear,220,2013-10-02 03:53:00
10:13 PM,46.4,24.8,43,30.31,10.0,SW,10.4,-,N/A,,Clear,220,2013-10-02 04:13:00
10:34 PM,46.4,21.2,37,30.31,10.0,SW,8.1,19.6,N/A,,Clear,220,2013-10-02 04:34:00
10:54 PM,46.4,21.2,37,30.30,10.0,SW,8.1,-,N/A,,Clear,220,2013-10-02 04:54:00
11:14 PM,46.4,21.2,37,30.30,10.0,SW,10.4,16.1,N/A,,Clear,230,2013-10-02 05:14:00
11:34 PM,46.4,19.4,34,30.29,10.0,SW,9.2,-,N/A,,Clear,230,2013-10-02 05:34:00
11:54 PM,46.4,19.4,34,30.29,10.0,SW,8.1,-,N/A,,Clear,230,2013-10-02 05:54:00